createdAt,value
2022-09-09T00:02:05.788Z,13.30
2022-09-09T00:04:38.801Z,13.30
2022-09-09T00:07:45.683Z,13.30
2022-09-09T00:10:23.853Z,13.20
2022-09-09T00:13:11.210Z,13.30
2022-09-09T00:16:00.806Z,13.30
2022-09-09T00:18:55.616Z,13.20
2022-09-09T00:21:37.486Z,13.20
2022-09-09T00:24:38.426Z,13.30
2022-09-09T00:27:13.375Z,13.30
2022-09-09T00:29:51.540Z,13.30
2022-09-09T00:32:20.076Z,13.30
2022-09-09T00:34:55.469Z,11.60
2022-09-09T00:37:26.558Z,13.20
2022-09-09T00:39:58.872Z,13.10
2022-09-09T00:42:41.749Z,13.10
2022-09-09T00:45:34.134Z,13.20
2022-09-09T00:48:10.290Z,13.20
2022-09-09T00:51:02.203Z,13.30
2022-09-09T00:53:40.000Z,13.30
2022-09-09T00:56:14.187Z,13.30
2022-09-09T00:58:53.010Z,13.30
2022-09-09T01:01:21.062Z,13.30
2022-09-09T01:03:48.981Z,13.30
2022-09-09T01:06:16.602Z,13.40
2022-09-09T01:08:54.811Z,13.40
2022-09-09T01:11:32.800Z,13.50
2022-09-09T01:14:31.700Z,13.50
2022-09-09T01:17:10.960Z,13.60
2022-09-09T01:19:51.470Z,13.60
2022-09-09T01:23:05.606Z,13.60
2022-09-09T01:25:44.709Z,13.60
2022-09-09T01:28:29.037Z,13.60
2022-09-09T01:31:05.419Z,13.70
2022-09-09T01:33:40.170Z,13.60
2022-09-09T01:36:11.977Z,13.70
2022-09-09T01:38:47.086Z,13.60
2022-09-09T01:41:15.842Z,13.60
2022-09-09T01:43:50.288Z,14.00
2022-09-09T01:46:20.048Z,13.70
2022-09-09T01:48:48.065Z,13.90
2022-09-09T01:51:16.734Z,13.80
2022-09-09T01:53:46.673Z,13.90
2022-09-09T01:56:34.408Z,13.90
2022-09-09T01:59:14.440Z,14.10
2022-09-09T02:02:10.190Z,14.10
2022-09-09T02:04:46.640Z,14.10
2022-09-09T02:07:23.457Z,14.20
2022-09-09T02:10:05.731Z,14.20
2022-09-09T02:12:33.698Z,14.20
2022-09-09T02:15:17.483Z,14.30
2022-09-09T02:17:53.103Z,14.20
2022-09-09T02:20:23.021Z,14.30
2022-09-09T02:22:58.211Z,14.30
2022-09-09T02:25:30.581Z,14.30
2022-09-09T02:28:10.680Z,14.30
2022-09-09T02:30:42.340Z,14.20
2022-09-09T02:33:14.041Z,14.30
2022-09-09T02:35:49.119Z,14.30
2022-09-09T02:38:22.407Z,14.40
2022-09-09T02:41:00.003Z,14.40
2022-09-09T02:43:33.042Z,14.40
2022-09-09T02:46:29.132Z,14.50
2022-09-09T02:49:07.354Z,14.60
2022-09-09T02:52:06.789Z,14.50
2022-09-09T02:54:40.220Z,14.60
2022-09-09T02:57:25.911Z,14.70
2022-09-09T02:59:53.873Z,14.70
2022-09-09T03:02:21.584Z,14.80
2022-09-09T03:04:55.207Z,14.80
2022-09-09T03:07:23.503Z,14.80
2022-09-09T03:09:56.144Z,14.80
2022-09-09T03:12:27.108Z,14.80
2022-09-09T03:14:54.779Z,14.80
2022-09-09T03:17:22.715Z,14.80
2022-09-09T03:19:56.198Z,14.80
2022-09-09T03:22:23.978Z,14.80
2022-09-09T03:27:20.581Z,14.80
2022-09-09T03:29:52.177Z,14.80
2022-09-09T03:32:23.927Z,14.80
2022-09-09T03:34:51.897Z,14.80
2022-09-09T03:37:21.223Z,14.80
2022-09-09T03:42:20.182Z,14.80
2022-09-09T03:44:52.424Z,14.80
2022-09-09T03:47:23.338Z,14.90
2022-09-09T03:49:54.982Z,14.80
2022-09-09T03:52:26.169Z,14.90
2022-09-09T03:54:55.463Z,14.90
2022-09-09T03:57:23.124Z,14.90
2022-09-09T03:59:52.568Z,14.90
2022-09-09T04:02:20.491Z,14.80
2022-09-09T04:04:48.434Z,14.80
2022-09-09T04:07:17.078Z,14.80
2022-09-09T04:09:45.147Z,14.80
2022-09-09T04:12:14.325Z,14.70
2022-09-09T04:14:42.757Z,14.70
2022-09-09T04:17:10.613Z,14.70
2022-09-09T04:19:38.375Z,14.70
2022-09-09T04:22:06.033Z,14.70
2022-09-09T04:24:33.984Z,14.60
2022-09-09T04:27:02.799Z,14.60
2022-09-09T04:29:31.339Z,14.60
2022-09-09T04:31:59.081Z,14.60
2022-09-09T04:34:27.068Z,14.60
2022-09-09T04:36:56.284Z,14.60
2022-09-09T04:39:24.919Z,14.60
2022-09-09T04:41:53.952Z,14.60
2022-09-09T04:44:23.609Z,14.60
2022-09-09T04:46:51.264Z,14.60
2022-09-09T04:49:19.679Z,14.60
2022-09-09T04:51:48.046Z,14.60
2022-09-09T04:54:15.795Z,14.60
2022-09-09T04:56:45.422Z,14.50
2022-09-09T04:59:13.588Z,14.50
2022-09-09T05:01:46.863Z,14.50
2022-09-09T05:04:16.396Z,14.50
2022-09-09T05:06:44.594Z,14.50
2022-09-09T05:09:13.761Z,14.50
2022-09-09T05:11:41.407Z,14.50
2022-09-09T05:14:32.179Z,14.50
2022-09-09T05:17:02.206Z,14.50
2022-09-09T05:19:30.159Z,14.90
2022-09-09T05:24:34.383Z,14.50
2022-09-09T05:27:04.137Z,14.50
2022-09-09T05:29:34.444Z,14.50
2022-09-09T05:32:04.960Z,14.50
2022-09-09T05:34:33.241Z,14.50
2022-09-09T05:37:01.661Z,14.50
2022-09-09T05:39:29.320Z,14.50
2022-09-09T05:41:58.068Z,14.50
2022-09-09T05:44:28.669Z,14.50
2022-09-09T05:46:56.701Z,14.50
2022-09-09T05:49:24.572Z,14.50
2022-09-09T05:51:52.565Z,14.40
2022-09-09T05:54:21.889Z,14.50
2022-09-09T05:56:53.779Z,14.50
2022-09-09T05:59:22.007Z,14.50
2022-09-09T06:01:51.978Z,14.50
2022-09-09T06:04:28.004Z,14.40
2022-09-09T06:06:55.651Z,14.40
2022-09-09T06:09:24.417Z,14.50
2022-09-09T06:11:52.461Z,14.50
2022-09-09T06:14:22.938Z,14.60
2022-09-09T06:16:53.204Z,14.50
2022-09-09T06:19:29.888Z,14.60
2022-09-09T06:21:59.827Z,14.60
2022-09-09T06:24:31.307Z,14.60
2022-09-09T06:27:00.586Z,14.70
2022-09-09T06:29:32.756Z,14.60
2022-09-09T06:32:04.356Z,14.70
2022-09-09T06:34:32.694Z,14.70
2022-09-09T06:37:01.434Z,14.80
2022-09-09T06:39:36.502Z,14.80
2022-09-09T06:42:05.482Z,14.80
2022-09-09T06:44:51.067Z,14.90
2022-09-09T06:47:38.928Z,14.90
2022-09-09T06:50:08.406Z,15.00
2022-09-09T06:52:37.018Z,15.00
2022-09-09T06:55:05.974Z,15.10
2022-09-09T06:57:37.678Z,15.10
2022-09-09T07:00:15.415Z,15.10
2022-09-09T07:02:43.246Z,15.20
2022-09-09T07:05:14.409Z,15.30
2022-09-09T07:07:44.070Z,15.30
2022-09-09T07:10:13.308Z,15.40
2022-09-09T07:12:41.485Z,15.50
2022-09-09T07:15:12.151Z,15.60
2022-09-09T07:17:43.329Z,15.60
2022-09-09T07:20:11.243Z,15.60
2022-09-09T07:22:39.405Z,15.60
2022-09-09T07:25:07.487Z,15.70
2022-09-09T07:27:35.282Z,15.80
2022-09-09T07:30:03.709Z,15.90
2022-09-09T07:32:33.957Z,15.90
2022-09-09T07:35:02.465Z,15.90
2022-09-09T07:37:30.348Z,16.00
2022-09-09T07:42:28.625Z,16.10
2022-09-09T07:44:56.525Z,16.10
2022-09-09T07:47:25.850Z,16.10
2022-09-09T07:49:53.514Z,16.30
2022-09-09T07:52:26.721Z,16.30
2022-09-09T07:54:58.092Z,16.40
2022-09-09T07:57:26.026Z,16.40
2022-09-09T07:59:55.468Z,16.30
2022-09-09T08:02:24.472Z,16.30
2022-09-09T08:04:52.723Z,16.30
2022-09-09T08:07:22.597Z,16.20
2022-09-09T08:09:56.801Z,16.30
2022-09-09T08:12:29.222Z,16.30
2022-09-09T08:14:57.784Z,16.30
2022-09-09T08:17:30.772Z,16.40
2022-09-09T08:20:05.542Z,16.50
2022-09-09T08:22:33.573Z,16.50
2022-09-09T08:25:01.623Z,16.50
2022-09-09T08:27:29.327Z,16.70
2022-09-09T08:29:57.674Z,16.70
2022-09-09T08:32:25.444Z,16.70
2022-09-09T08:34:54.530Z,16.80
2022-09-09T08:39:54.274Z,16.80
2022-09-09T08:42:28.948Z,17.10
2022-09-09T08:45:03.558Z,17.10
2022-09-09T08:47:40.192Z,17.10
2022-09-09T08:50:23.249Z,17.10
2022-09-09T08:53:03.993Z,17.20
2022-09-09T08:55:49.661Z,17.30
2022-09-09T08:58:31.800Z,17.30
2022-09-09T09:01:41.545Z,17.40
2022-09-09T09:04:42.786Z,17.40
2022-09-09T09:07:39.288Z,17.50
2022-09-09T09:10:40.117Z,17.60
2022-09-09T09:13:22.259Z,17.60
2022-09-09T09:16:03.217Z,17.70
2022-09-09T09:18:31.002Z,17.60
2022-09-09T09:21:31.037Z,17.60
2022-09-09T09:24:01.279Z,17.50
2022-09-09T09:26:36.087Z,17.50
2022-09-09T09:29:26.221Z,17.60
2022-09-09T09:31:57.225Z,17.80
2022-09-09T09:34:26.868Z,17.80
2022-09-09T09:37:06.360Z,17.90
2022-09-09T09:42:28.037Z,18.10
2022-09-09T09:45:08.131Z,18.10
2022-09-09T09:47:36.810Z,18.10
2022-09-09T09:50:21.565Z,18.30
2022-09-09T09:52:58.504Z,18.40
2022-09-09T09:55:31.045Z,18.50
2022-09-09T10:00:36.079Z,18.80
2022-09-09T10:03:30.849Z,18.90
2022-09-09T10:05:59.880Z,18.90
2022-09-09T10:08:28.881Z,18.90
2022-09-09T10:11:18.228Z,18.80
2022-09-09T10:14:01.046Z,21.70
2022-09-09T10:16:50.260Z,18.50
2022-09-09T10:19:30.404Z,18.50
2022-09-09T10:22:19.792Z,18.50
2022-09-09T10:24:51.399Z,18.50
2022-09-09T10:27:26.874Z,18.60
2022-09-09T10:30:19.969Z,18.60
2022-09-09T10:32:52.305Z,18.70
2022-09-09T10:35:40.215Z,18.70
2022-09-09T10:38:12.019Z,18.80
2022-09-09T10:40:45.566Z,19.00
2022-09-09T10:43:41.376Z,19.10
2022-09-09T10:46:16.561Z,19.20
2022-09-09T10:49:06.984Z,19.20
2022-09-09T10:51:57.159Z,19.20
2022-09-09T10:54:50.089Z,19.10
2022-09-09T10:57:29.938Z,19.10
2022-09-09T11:00:05.694Z,19.00
2022-09-09T11:02:35.871Z,19.00
2022-09-09T11:05:26.200Z,18.70
2022-09-09T11:08:02.292Z,18.70
2022-09-09T11:10:41.415Z,18.70
2022-09-09T11:13:49.870Z,18.70
2022-09-09T11:16:33.064Z,18.90
2022-09-09T11:19:25.593Z,19.10
2022-09-09T11:21:56.603Z,19.10
2022-09-09T11:24:51.581Z,19.40
2022-09-09T11:27:33.207Z,19.30
2022-09-09T11:30:37.623Z,19.30
2022-09-09T11:33:31.401Z,19.30
2022-09-09T11:36:36.820Z,19.50
2022-09-09T11:39:38.234Z,19.50
2022-09-09T11:42:21.734Z,19.70
2022-09-09T11:44:49.796Z,20.10
2022-09-09T11:47:31.034Z,20.00
2022-09-09T11:50:17.098Z,20.10
2022-09-09T11:52:47.479Z,20.20
2022-09-09T11:55:31.906Z,20.30
2022-09-09T11:58:05.476Z,20.40
2022-09-09T12:00:38.073Z,20.50
2022-09-09T12:03:06.753Z,20.80
2022-09-09T12:05:41.996Z,21.10
2022-09-09T12:08:18.530Z,21.00
2022-09-09T12:10:57.073Z,20.90
2022-09-09T12:13:27.763Z,20.60
2022-09-09T12:15:58.637Z,20.70
2022-09-09T12:18:39.223Z,20.60
2022-09-09T12:21:24.831Z,20.50
2022-09-09T12:23:58.211Z,20.50
2022-09-09T12:26:48.792Z,20.40
2022-09-09T12:29:34.576Z,20.50
2022-09-09T12:32:19.959Z,20.70
2022-09-09T12:35:01.589Z,21.10
2022-09-09T12:38:01.669Z,21.10
2022-09-09T12:40:33.382Z,21.10
2022-09-09T12:43:02.414Z,21.20
2022-09-09T12:45:33.442Z,21.30
2022-09-09T12:48:07.315Z,21.30
2022-09-09T12:50:38.809Z,21.40
2022-09-09T12:53:16.837Z,21.40
2022-09-09T12:55:58.346Z,21.50
2022-09-09T12:58:26.965Z,21.70
2022-09-09T13:00:58.979Z,22.00
2022-09-09T13:03:27.699Z,22.60
2022-09-09T13:06:01.397Z,22.80
2022-09-09T13:08:29.404Z,23.10
2022-09-09T13:11:04.244Z,23.20
2022-09-09T13:13:38.880Z,24.20
2022-09-09T13:16:19.409Z,24.00
2022-09-09T13:18:47.709Z,20.70
2022-09-09T13:21:15.845Z,20.60
2022-09-09T13:23:50.578Z,19.40
2022-09-09T13:26:24.942Z,18.50
2022-09-09T13:28:54.201Z,17.90
2022-09-09T13:31:31.413Z,17.50
2022-09-09T13:33:59.493Z,17.20
2022-09-09T13:36:31.433Z,17.00
2022-09-09T13:39:01.349Z,16.90
2022-09-09T13:41:45.633Z,16.70
2022-09-09T13:44:25.230Z,16.60
2022-09-09T13:47:18.256Z,16.60
2022-09-09T13:49:48.287Z,16.50
2022-09-09T13:52:20.146Z,16.50
2022-09-09T13:54:55.565Z,16.40
2022-09-09T13:57:26.258Z,16.40
2022-09-09T14:00:11.743Z,16.30
2022-09-09T14:02:40.404Z,16.30
2022-09-09T14:05:08.331Z,16.30
2022-09-09T14:07:36.059Z,16.30
2022-09-09T14:10:03.948Z,16.30
2022-09-09T14:12:31.753Z,16.30
2022-09-09T14:15:00.810Z,16.30
2022-09-09T14:17:31.622Z,16.40
2022-09-09T14:19:59.635Z,16.40
2022-09-09T14:22:27.521Z,16.40
2022-09-09T14:24:55.067Z,16.50
2022-09-09T14:27:22.668Z,16.50
2022-09-09T14:29:50.366Z,16.50
2022-09-09T14:32:17.959Z,16.50
2022-09-09T14:34:45.864Z,16.50
2022-09-09T14:37:13.429Z,16.60
2022-09-09T14:39:41.077Z,16.60
2022-09-09T14:42:09.736Z,16.60
2022-09-09T14:44:41.568Z,16.60
2022-09-09T14:47:09.946Z,16.70
2022-09-09T14:49:39.116Z,16.80
2022-09-09T14:52:10.210Z,17.00
2022-09-09T14:54:37.862Z,17.50
2022-09-09T14:57:05.510Z,18.00
2022-09-09T14:59:33.118Z,18.90
2022-09-09T15:02:05.144Z,19.60
2022-09-09T15:04:33.072Z,19.90
2022-09-09T15:07:00.875Z,19.90
2022-09-09T15:09:28.837Z,19.80
2022-09-09T15:11:57.268Z,19.70
2022-09-09T15:14:26.138Z,19.70
2022-09-09T15:16:54.085Z,20.50
2022-09-09T15:19:21.727Z,20.80
2022-09-09T15:21:50.033Z,20.80
2022-09-09T15:24:17.985Z,21.30
2022-09-09T15:26:45.692Z,21.30
2022-09-09T15:29:13.645Z,22.20
2022-09-09T15:31:41.342Z,22.20
2022-09-09T15:34:09.426Z,21.80
2022-09-09T15:36:39.860Z,21.80
2022-09-09T15:39:13.363Z,21.30
2022-09-09T15:41:41.563Z,20.40
2022-09-09T15:44:12.049Z,20.30
2022-09-09T15:46:42.919Z,20.00
2022-09-09T15:49:28.135Z,19.60
2022-09-09T15:52:03.389Z,17.80
2022-09-09T15:54:36.701Z,19.50
2022-09-09T15:57:05.814Z,19.50
2022-09-09T15:59:35.000Z,19.60
2022-09-09T16:02:03.543Z,20.30
2022-09-09T16:04:31.282Z,20.30
2022-09-09T16:07:01.275Z,20.10
2022-09-09T16:09:30.192Z,19.30
2022-09-09T16:12:03.462Z,19.20
2022-09-09T16:14:35.212Z,17.40
2022-09-09T16:17:06.674Z,16.80
2022-09-09T16:19:36.311Z,16.20
2022-09-09T16:22:05.707Z,16.10
2022-09-09T16:24:35.288Z,15.60
2022-09-09T16:27:03.307Z,15.40
2022-09-09T16:29:31.882Z,15.30
2022-09-09T16:32:03.951Z,15.30
2022-09-09T16:34:32.078Z,15.20
2022-09-09T16:36:59.782Z,15.20
2022-09-09T16:39:27.475Z,15.00
2022-09-09T16:41:55.123Z,15.00
2022-09-09T16:46:58.057Z,15.00
2022-09-09T16:49:29.612Z,14.90
2022-09-09T16:51:59.882Z,14.90
2022-09-09T16:54:28.219Z,14.90
2022-09-09T16:56:56.026Z,14.90
2022-09-09T16:59:24.606Z,14.90
2022-09-09T17:01:53.418Z,15.10
2022-09-09T17:04:25.950Z,15.10
2022-09-09T17:06:55.897Z,15.10
2022-09-09T17:09:24.363Z,15.40
2022-09-09T17:11:53.391Z,15.30
2022-09-09T17:14:23.441Z,15.40
2022-09-09T17:16:51.345Z,15.50
2022-09-09T17:19:19.494Z,15.50
2022-09-09T17:22:22.118Z,15.50
2022-09-09T17:24:39.481Z,15.60
2022-09-09T17:27:07.603Z,15.60
2022-09-09T17:29:37.061Z,15.70
2022-09-09T17:32:06.384Z,16.10
2022-09-09T17:34:34.971Z,16.70
2022-09-09T17:37:02.651Z,16.80
2022-09-09T17:39:30.237Z,17.30
2022-09-09T17:41:58.082Z,17.30
2022-09-09T17:44:25.790Z,17.30
2022-09-09T17:46:53.599Z,17.20
2022-09-09T17:49:21.361Z,18.50
2022-09-09T17:51:49.073Z,17.00
2022-09-09T17:54:19.636Z,16.80
2022-09-09T17:56:48.424Z,16.80
2022-09-09T17:59:18.738Z,16.40
2022-09-09T18:01:48.271Z,16.40
2022-09-09T18:04:17.044Z,16.30
2022-09-09T18:06:47.551Z,15.90
2022-09-09T18:09:18.188Z,15.80
2022-09-09T18:11:49.632Z,15.70
2022-09-09T18:14:23.197Z,15.60
2022-09-09T18:16:51.162Z,15.60
2022-09-09T18:19:20.474Z,15.50
2022-09-09T18:21:49.797Z,15.30
2022-09-09T18:24:19.542Z,15.20
2022-09-09T18:26:48.556Z,15.20
2022-09-09T18:29:20.138Z,15.10
2022-09-09T18:31:49.013Z,15.10
2022-09-09T18:34:18.657Z,15.00
2022-09-09T18:36:53.856Z,15.00
2022-09-09T18:39:25.002Z,15.00
2022-09-09T18:41:55.585Z,14.90
2022-09-09T18:44:26.262Z,14.90
2022-09-09T18:46:55.251Z,14.80
2022-09-09T18:49:24.670Z,14.80
2022-09-09T18:51:53.017Z,14.80
2022-09-09T18:54:23.728Z,14.70
2022-09-09T18:56:53.074Z,14.70
2022-09-09T18:59:22.301Z,14.60
2022-09-09T19:01:51.457Z,17.40
2022-09-09T19:04:20.279Z,14.70
2022-09-09T19:06:49.355Z,14.60
2022-09-09T19:09:18.574Z,14.60
2022-09-09T19:11:47.751Z,14.60
2022-09-09T19:14:17.387Z,14.60
2022-09-09T19:16:45.771Z,14.50
2022-09-09T19:19:23.551Z,14.50
2022-09-09T19:21:55.273Z,14.50
2022-09-09T19:24:25.322Z,14.60
2022-09-09T19:26:55.333Z,14.50
2022-09-09T19:29:25.211Z,14.60
2022-09-09T19:32:36.473Z,14.50
2022-09-09T19:34:44.191Z,14.60
2022-09-09T19:37:16.352Z,14.60
2022-09-09T19:39:47.214Z,14.60
2022-09-09T19:42:15.648Z,14.40
2022-09-09T19:44:44.521Z,14.60
2022-09-09T19:47:14.398Z,14.60
2022-09-09T19:49:46.674Z,14.60
2022-09-09T19:52:16.106Z,14.60
2022-09-09T19:54:44.176Z,14.70
2022-09-09T19:57:11.832Z,14.70
2022-09-09T19:59:39.650Z,14.70
2022-09-09T20:02:07.410Z,14.70
2022-09-09T20:04:37.469Z,14.70
2022-09-09T20:07:05.283Z,14.70
2022-09-09T20:09:33.197Z,14.80
2022-09-09T20:12:00.900Z,14.80
2022-09-09T20:14:28.950Z,14.80
2022-09-09T20:16:56.818Z,14.80
2022-09-09T20:19:24.250Z,14.80
2022-09-09T20:21:52.235Z,14.80
2022-09-09T20:24:20.489Z,14.80
2022-09-09T20:26:49.099Z,14.80
2022-09-09T20:29:19.282Z,14.70
2022-09-09T20:31:48.376Z,14.70
2022-09-09T20:34:19.736Z,14.70
2022-09-09T20:36:48.653Z,14.70
2022-09-09T20:39:20.001Z,14.70
2022-09-09T20:41:49.202Z,14.70
2022-09-09T20:44:24.398Z,14.70
2022-09-09T20:46:55.584Z,14.70
2022-09-09T20:49:24.524Z,14.70
2022-09-09T20:51:53.445Z,14.70
2022-09-09T20:54:28.130Z,14.60
2022-09-09T20:56:56.664Z,14.70
2022-09-09T20:59:27.061Z,14.60
2022-09-09T21:01:56.925Z,14.60
2022-09-09T21:04:26.171Z,14.60
2022-09-09T21:06:53.882Z,14.60
2022-09-09T21:09:24.869Z,14.70
2022-09-09T21:11:53.770Z,14.70
2022-09-09T21:14:22.145Z,14.70
2022-09-09T21:16:50.500Z,14.70
2022-09-09T21:19:18.573Z,14.80
2022-09-09T21:21:47.996Z,14.80
2022-09-09T21:24:16.270Z,14.70
2022-09-09T21:26:44.003Z,14.70
2022-09-09T21:29:13.161Z,14.70
2022-09-09T21:31:41.468Z,14.60
2022-09-09T21:34:09.823Z,14.70
2022-09-09T21:36:37.750Z,14.60
2022-09-09T21:39:05.457Z,14.60
2022-09-09T21:41:33.163Z,14.60
2022-09-09T21:44:00.752Z,14.50
2022-09-09T21:46:29.373Z,14.50
2022-09-09T21:48:58.633Z,14.40
2022-09-09T21:51:26.433Z,14.50
2022-09-09T21:53:57.459Z,14.40
2022-09-09T21:56:26.837Z,14.40
2022-09-09T21:58:56.939Z,14.30
2022-09-09T22:01:26.302Z,14.30
2022-09-09T22:03:54.143Z,14.20
2022-09-09T22:06:21.727Z,14.20
2022-09-09T22:08:49.595Z,14.20
2022-09-09T22:11:20.661Z,14.20
2022-09-09T22:13:49.079Z,14.10
2022-09-09T22:16:19.466Z,14.20
2022-09-09T22:18:52.618Z,14.20
2022-09-09T22:21:20.955Z,14.10
2022-09-09T22:24:03.384Z,14.10
2022-09-09T22:26:33.664Z,14.00
2022-09-09T22:29:01.410Z,14.10
2022-09-09T22:31:29.150Z,14.10
2022-09-09T22:33:56.843Z,14.00
2022-09-09T22:36:26.003Z,14.00
2022-09-09T22:39:40.850Z,13.90
2022-09-09T22:42:08.647Z,13.90
2022-09-09T22:47:04.193Z,13.80
2022-09-09T22:49:31.761Z,13.80
2022-09-09T22:51:59.370Z,13.70
2022-09-09T22:54:27.054Z,13.70
2022-09-09T22:56:54.917Z,13.70
2022-09-09T22:59:23.575Z,13.70
2022-09-09T23:01:51.479Z,13.60
2022-09-09T23:04:22.776Z,13.60
2022-09-09T23:06:50.546Z,13.60
2022-09-09T23:09:18.073Z,13.60
2022-09-09T23:11:48.163Z,13.60
2022-09-09T23:14:15.896Z,13.60
2022-09-09T23:16:45.168Z,13.60
2022-09-09T23:19:15.996Z,13.80
2022-09-09T23:21:46.201Z,13.80
2022-09-09T23:24:15.904Z,13.70
2022-09-09T23:26:45.902Z,13.80
2022-09-09T23:29:14.958Z,13.70
2022-09-09T23:31:45.033Z,13.70
2022-09-09T23:34:13.181Z,13.70
2022-09-09T23:36:41.563Z,13.70
2022-09-09T23:39:10.965Z,13.70
2022-09-09T23:41:40.224Z,13.70
2022-09-09T23:44:08.134Z,13.80
2022-09-09T23:46:35.737Z,13.80
2022-09-09T23:49:04.162Z,13.80
2022-09-09T23:51:32.915Z,13.90
2022-09-09T23:54:04.764Z,13.90
2022-09-09T23:56:38.916Z,13.90
2022-09-09T23:59:08.037Z,13.90
